New Vision — 3FSQ9 — position and weather

sailwx.info

Track history (hours):
 
Tides and Currents Weather Stations Pressure Air Temp Water Temp Dewpoint Dewpoint Depression Visibility Wind Speed Wind Dir Waves Ship Positions

New Vision

Last reported at 2015-Mar-03 00:33 UTC. Time now 2015-Mar-06 21:39 UTC.
Position S 35°07' E 138°06'.

Length 189 m; draft 6 m.

Type: Cargo ship. MMSI: 357764000.

Date/timePositionNaut miles runAvg speedWind from/ knotsBaromVisibWave heightAir tempDewpointWater temp
2015-Mar-03 00:33S 35°07' E 138°06'26 8.7
2015-Mar-02 21:33S 34°50' E 138°30'0 0.0
2015-Mar-02 09:31S 34°50' E 138°31'0 0.0
2015-Mar-02 08:31S 34°50' E 138°31'0 0.0
2015-Mar-02 07:28S 34°50' E 138°31'0 0.0
2015-Mar-02 05:31S 34°50' E 138°31'0 0.0
2015-Feb-28 04:20S 34°50' E 138°31'0 0.0
2015-Feb-28 03:20S 34°50' E 138°31'4 1.4
2015-Feb-28 00:33S 34°48' E 138°27'10 4.8
2015-Feb-27 22:32S 34°49' E 138°15'0 0.0
2015-Feb-27 11:31S 34°49' E 138°15'0 0.0
2015-Feb-27 10:31S 34°49' E 138°15'0 0.1
2015-Feb-27 09:31S 34°49' E 138°15'0 0.0
2015-Feb-27 08:31S 34°49' E 138°15'0 0.0
2015-Feb-27 07:31S 34°49' E 138°15'0 0.0
2015-Feb-27 04:31S 34°49' E 138°15'0 0.1
2015-Feb-27 02:22S 34°49' E 138°15'0 0.0
2015-Feb-26 22:31S 34°49' E 138°15'0 0.0
2015-Feb-26 20:28S 34°49' E 138°15'0 0.0
2015-Feb-26 12:04S 34°49' E 138°15'0 0.1
2015-Feb-26 11:31S 34°49' E 138°15'0 0.0
2015-Feb-26 10:25S 34°49' E 138°15'0 0.0
2015-Feb-26 09:31S 34°49' E 138°15'0 0.0
2015-Feb-26 08:31S 34°49' E 138°15'0 0.0
2015-Feb-26 07:31S 34°49' E 138°15'11 8.5
2015-Feb-26 06:12S 35°00' E 138°13'813.2
2015-Feb-26 05:33S 35°08' E 138°10'27111.8
2015-Feb-25 06:32S 38°40' E 141°41'1313.1
2015-Feb-25 05:32S 38°43' E 141°57'1312.8
2015-Feb-25 04:32S 38°46' E 142°14'1212.8
2015-Feb-25 03:34S 38°49' E 142°29'1312.6
2015-Feb-25 02:33S 38°52' E 142°45'98 8.6
2015-Feb-24 15:14S 38°06' E 144°35'  
Track history (hours):
 
Tides and Currents Weather Stations Pressure Air Temp Water Temp Dewpoint Dewpoint Depression Visibility Wind Speed Wind Dir Waves Ship Positions

New Vision

Last reported at 2015-Mar-03 00:33 UTC. Time now 2015-Mar-06 21:39 UTC.
Position S 35°07' E 138°06'.

Length 189 m; draft 6 m.

Type: Cargo ship. MMSI: 357764000.

Date/timePositionNaut miles runAvg speedWind from/ knotsBaromVisibWave heightAir tempDewpointWater temp
2015-Mar-03 00:33S 35°07' E 138°06'26 8.7
2015-Mar-02 21:33S 34°50' E 138°30'0 0.0
2015-Mar-02 09:31S 34°50' E 138°31'0 0.0
2015-Mar-02 08:31S 34°50' E 138°31'0 0.0
2015-Mar-02 07:28S 34°50' E 138°31'0 0.0
2015-Mar-02 05:31S 34°50' E 138°31'0 0.0
2015-Feb-28 04:20S 34°50' E 138°31'0 0.0
2015-Feb-28 03:20S 34°50' E 138°31'4 1.4
2015-Feb-28 00:33S 34°48' E 138°27'10 4.8
2015-Feb-27 22:32S 34°49' E 138°15'0 0.0
2015-Feb-27 11:31S 34°49' E 138°15'0 0.0
2015-Feb-27 10:31S 34°49' E 138°15'0 0.1
2015-Feb-27 09:31S 34°49' E 138°15'0 0.0
2015-Feb-27 08:31S 34°49' E 138°15'0 0.0
2015-Feb-27 07:31S 34°49' E 138°15'0 0.0
2015-Feb-27 04:31S 34°49' E 138°15'0 0.1
2015-Feb-27 02:22S 34°49' E 138°15'0 0.0
2015-Feb-26 22:31S 34°49' E 138°15'0 0.0
2015-Feb-26 20:28S 34°49' E 138°15'0 0.0
2015-Feb-26 12:04S 34°49' E 138°15'0 0.1
2015-Feb-26 11:31S 34°49' E 138°15'0 0.0
2015-Feb-26 10:25S 34°49' E 138°15'0 0.0
2015-Feb-26 09:31S 34°49' E 138°15'0 0.0
2015-Feb-26 08:31S 34°49' E 138°15'0 0.0
2015-Feb-26 07:31S 34°49' E 138°15'11 8.5
2015-Feb-26 06:12S 35°00' E 138°13'813.2
2015-Feb-26 05:33S 35°08' E 138°10'27111.8
2015-Feb-25 06:32S 38°40' E 141°41'1313.1
2015-Feb-25 05:32S 38°43' E 141°57'1312.8
2015-Feb-25 04:32S 38°46' E 142°14'1212.8
2015-Feb-25 03:34S 38°49' E 142°29'1312.6
2015-Feb-25 02:33S 38°52' E 142°45'98 8.6
2015-Feb-24 15:14S 38°06' E 144°35'  

Dump ship's entire track history